Portada
METAR-TAF:

METAR-TAF

Aeroports :

Tawau, Malàisia

latitud: 04-16N, longitud: 117-53E, altitud: 18 m

Observació

L'informe es va fer fa 36 minuts, a les 01:00 UTC
Vent 2 kt amb direcció variable
Temperatura 30°C
Humitat 75%
Pressió 1011 hPa
Visibilitat 10 km o més
Escasses núvols a una alçada de 1700 ft

METAR: WBKW 300100Z VRB02KT 9999 FEW017 30/25 Q1011

Hora: 09:36 (01:36 UTC)

Pronòstic

L'informe es va fer fa 2 hores i 36 minuts, a les 23:00 UTC
Pronòstic vàlid del 30 a les 00 UTC al 31 a les 00 UTC
Vent 8 kt del Sud
Visibilitat 10 km o més
Escasses núvols a una alçada de 1700 ft
Temporalment
l' 30 a les 06 UTC al 30 a les 10 UTC
Visibilitat: 5000 m
Escasses núvols a una alçada de 1500 ft
Escasses núvols a una alçada de 1700 ft, Cumulonimbus.
Núvols disperses a una alçada de 3500 ft
tempesta, pluja

TAF: WBKW 292300Z 3000/3100 17008KT 9999 FEW017 TEMPO 3006/3010 5000 TSRA FEW015 FEW017CB SCT035

Observacions i pronòstics meteorològics de més de 4000 aeroports (METAR i TAF).

Les estacions disponibles són els punts grocs i vermells al mapa.

Posi el ratolí al punt desitjat per veure el nom de l'estació.

Feu clic per veure les observacions i els pronòstics meteorològics.

Per canviar el mapa: feu clic els botons verds amb una creu de color negre per apropar; al botó verd amb un guió per allunyar la imatge; o en les fletxes verdes per a mapes adjacents.


METAR-TAF: